Time;durP1;ratioP1;P1;durP2;ratioP2;P2;SDS_P1;SDS_P2;PMS_P1;PMS_P2;Temp;Humidity;BMP_temperature;BMP_pressure;BME280_temperature;BME280_humidity;BME280_pressure;Samples;Min_cycle;Max_cycle;Signal;HPM_P1;HPM_P2
2021/12/07 00:00:24;;;;;;;3.53;1.85;;;20.80;53.00;;;;;;5010192;28;20034;-84
2021/12/07 00:02:50;;;;;;;4.18;1.80;;;20.50;52.80;;;;;;5009647;28;20045;-85
2021/12/07 00:05:16;;;;;;;4.07;2.10;;;20.30;52.70;;;;;;5029943;28;20041;-84
2021/12/07 00:07:43;;;;;;;3.50;1.77;;;19.30;52.20;;;;;;5029207;28;20045;-84
2021/12/07 00:10:11;;;;;;;3.75;1.85;;;19.30;52.20;;;;;;5029649;28;20050;-85
2021/12/07 00:12:40;;;;;;;2.78;1.42;;;19.30;52.10;;;;;;5029612;28;20045;-84
2021/12/07 00:15:07;;;;;;;3.55;1.90;;;19.30;52.20;;;;;;5046203;28;20124;-83
2021/12/07 00:17:32;;;;;;;4.05;1.92;;;19.30;52.20;;;;;;5029577;28;20049;-83
2021/12/07 00:19:58;;;;;;;3.03;1.55;;;19.30;52.20;;;;;;5029595;28;20049;-84
2021/12/07 00:22:24;;;;;;;3.35;1.67;;;19.30;52.20;;;;;;5012079;28;20497;-84
2021/12/07 00:24:49;;;;;;;4.07;1.70;;;19.30;52.20;;;;;;4648736;28;10008233;-84
2021/12/07 00:27:15;;;;;;;2.85;1.50;;;19.30;52.20;;;;;;5009969;28;20552;-85
2021/12/07 00:29:41;;;;;;;3.58;1.60;;;19.30;52.20;;;;;;5008892;28;20069;-84
2021/12/07 00:32:20;;;;;;;3.75;1.83;;;19.20;52.10;;;;;;5009665;28;20115;-84
2021/12/07 00:37:28;;;;;;;2.72;1.60;;;19.20;52.10;;;;;;5008859;28;20081;-84
2021/12/07 00:39:54;;;;;;;2.95;1.60;;;20.70;53.00;;;;;;5008093;28;20119;-84
2021/12/07 00:42:20;;;;;;;3.63;1.58;;;19.20;52.20;;;;;;5007959;28;20132;-84
2021/12/07 00:44:46;;;;;;;4.00;1.55;;;19.20;52.20;;;;;;5008804;28;20049;-84
2021/12/07 00:47:12;;;;;;;3.88;2.00;;;19.30;52.30;;;;;;5009254;28;20041;-84
2021/12/07 00:49:37;;;;;;;2.50;1.48;;;19.20;52.20;;;;;;5008880;28;20434;-84
2021/12/07 00:52:05;;;;;;;3.05;1.50;;;20.30;52.90;;;;;;5008410;28;20046;-84
2021/12/07 00:54:31;;;;;;;2.70;1.60;;;19.30;52.30;;;;;;5009214;28;20050;-84
2021/12/07 00:56:56;;;;;;;3.10;1.60;;;19.20;52.30;;;;;;5012538;28;20052;-85
2021/12/07 00:59:22;;;;;;;2.90;1.38;;;19.20;52.40;;;;;;5008773;28;20052;-84
2021/12/07 01:01:50;;;;;;;2.83;1.40;;;20.40;53.10;;;;;;5008744;28;20041;-84
2021/12/07 01:04:16;;;;;;;2.90;1.48;;;19.20;52.40;;;;;;5008671;28;20107;-84
2021/12/07 01:25:52;;;;;;;2.17;1.10;;;19.20;52.30;;;;;;5007966;28;20050;-85
2021/12/07 01:28:51;;;;;;;2.53;1.30;;;21.00;53.30;;;;;;5008400;28;20481;-85
2021/12/07 01:31:23;;;;;;;2.83;1.50;;;19.20;52.30;;;;;;5026247;28;20517;-84
2021/12/07 01:42:53;;;;;;;3.05;1.50;;;19.20;52.30;;;;;;5008406;28;20144;-85
2021/12/07 01:45:03;;;;;;;3.40;1.42;;;19.20;52.40;;;;;;5008495;28;20481;-84
2021/12/07 01:47:38;;;;;;;2.25;1.20;;;19.20;52.30;;;;;;5007271;28;20482;-85
2021/12/07 01:50:24;;;;;;;2.92;1.55;;;19.20;52.40;;;;;;5008772;28;20069;-84
2021/12/07 02:00:49;;;;;;;2.65;1.20;;;20.60;53.20;;;;;;5011658;28;20058;-84
2021/12/07 02:03:16;;;;;;;2.47;1.20;;;19.20;52.40;;;;;;4996020;28;20050;-84
2021/12/07 02:05:41;;;;;;;2.70;1.10;;;20.30;53.10;;;;;;5011808;28;20519;-84
2021/12/07 02:08:07;;;;;;;2.00;1.00;;;19.20;52.50;;;;;;5011669;28;20077;-84
2021/12/07 02:10:33;;;;;;;1.92;1.10;;;20.30;53.10;;;;;;5012817;28;20045;-84
2021/12/07 02:13:05;;;;;;;2.22;1.02;;;19.20;52.50;;;;;;5012227;28;20046;-84
2021/12/07 02:15:31;;;;;;;2.03;1.17;;;19.20;52.60;;;;;;5011586;28;20096;-84
2021/12/07 02:17:56;;;;;;;2.15;1.20;;;19.00;52.50;;;;;;5011761;28;20054;-85
2021/12/07 02:20:23;;;;;;;1.98;1.00;;;19.20;52.60;;;;;;5011525;28;20046;-85
2021/12/07 02:22:49;;;;;;;1.63;1.10;;;19.20;52.60;;;;;;5011340;28;20046;-84
2021/12/07 02:25:15;;;;;;;2.20;1.05;;;19.20;52.60;;;;;;5011798;28;20053;-84
2021/12/07 02:27:41;;;;;;;2.22;1.10;;;19.20;52.60;;;;;;5011272;28;20045;-84
2021/12/07 02:30:09;;;;;;;1.90;0.90;;;19.30;52.70;;;;;;5011493;28;20049;-84
2021/12/07 02:32:35;;;;;;;2.28;1.08;;;19.30;52.70;;;;;;4995621;28;20050;-84
2021/12/07 02:35:01;;;;;;;1.70;0.98;;;19.30;52.80;;;;;;5011544;28;20052;-84
2021/12/07 02:37:28;;;;;;;2.25;1.05;;;21.10;53.60;;;;;;5010991;28;20049;-84
2021/12/07 02:39:53;;;;;;;1.83;1.05;;;19.30;52.60;;;;;;5011676;28;20041;-84
2021/12/07 02:42:19;;;;;;;2.33;1.08;;;19.20;52.60;;;;;;5011623;28;20053;-85
2021/12/07 02:44:45;;;;;;;1.92;1.08;;;19.20;52.60;;;;;;5011061;28;20045;-85
2021/12/07 02:47:10;;;;;;;2.45;0.90;;;19.20;52.60;;;;;;5011719;28;20041;-85
2021/12/07 02:49:36;;;;;;;2.20;1.10;;;19.30;52.70;;;;;;5010987;28;20382;-85
2021/12/07 02:52:03;;;;;;;2.20;0.85;;;19.30;52.70;;;;;;5011594;28;20034;-84
2021/12/07 02:54:29;;;;;;;3.33;1.15;;;19.30;52.60;;;;;;5005700;28;20054;-85
2021/12/07 02:56:54;;;;;;;1.88;0.90;;;19.20;52.50;;;;;;4994277;28;20042;-84
2021/12/07 02:59:21;;;;;;;1.73;0.98;;;19.30;52.60;;;;;;5010906;28;20058;-85
2021/12/07 03:01:55;;;;;;;1.90;1.10;;;19.30;52.60;;;;;;4989650;28;20045;-84
2021/12/07 03:04:26;;;;;;;2.58;1.10;;;19.20;52.60;;;;;;5017106;28;20050;-85
2021/12/07 03:07:13;;;;;;;2.08;0.93;;;20.80;53.40;;;;;;5010571;28;20449;-84
2021/12/07 03:26:02;;;;;;;2.17;0.90;;;19.30;52.60;;;;;;5043331;28;20054;-84
2021/12/07 03:28:28;;;;;;;2.10;1.20;;;19.30;52.60;;;;;;5010305;28;20058;-84
2021/12/07 03:30:54;;;;;;;1.55;0.85;;;19.30;52.70;;;;;;5010386;28;20111;-84
2021/12/07 03:33:20;;;;;;;2.10;0.90;;;19.30;52.70;;;;;;5043030;28;20046;-85
2021/12/07 03:35:45;;;;;;;1.98;0.90;;;19.30;52.70;;;;;;5010509;28;20636;-86
2021/12/07 03:38:13;;;;;;;1.85;1.00;;;19.30;52.70;;;;;;5043484;28;20061;-85
2021/12/07 03:40:38;;;;;;;2.10;0.80;;;20.50;53.30;;;;;;5010055;28;20062;-84
2021/12/07 03:43:04;;;;;;;1.52;0.70;;;20.90;53.50;;;;;;5010360;28;20045;-83
2021/12/07 03:45:32;;;;;;;2.22;1.00;;;19.30;52.70;;;;;;5010441;28;20046;-82
2021/12/07 03:47:58;;;;;;;1.90;0.90;;;19.30;52.70;;;;;;5009071;28;20054;-84
2021/12/07 03:50:23;;;;;;;1.48;0.70;;;20.50;53.30;;;;;;4995036;28;20042;-84
2021/12/07 03:52:49;;;;;;;1.55;0.80;;;19.30;52.70;;;;;;5003864;28;20169;-84
2021/12/07 03:55:15;;;;;;;2.08;0.80;;;19.30;52.60;;;;;;5009709;28;20049;-84
2021/12/07 03:57:40;;;;;;;1.67;0.80;;;19.30;52.60;;;;;;4981076;28;20050;-85
2021/12/07 04:00:08;;;;;;;2.00;1.20;;;19.30;52.60;;;;;;5009930;28;20050;-84
2021/12/07 04:02:39;;;;;;;2.13;0.90;;;19.40;52.70;;;;;;5010462;28;20690;-84
2021/12/07 04:05:13;;;;;;;1.55;0.80;;;19.30;52.60;;;;;;5009665;28;20120;-84
2021/12/07 04:07:38;;;;;;;2.08;0.90;;;19.40;52.60;;;;;;5009311;28;20056;-84
2021/12/07 04:10:06;;;;;;;1.85;0.90;;;19.30;52.60;;;;;;5010103;28;20144;-84
2021/12/07 04:12:32;;;;;;;1.17;0.70;;;19.30;52.60;;;;;;4993165;28;20049;-84
2021/12/07 04:14:57;;;;;;;1.55;0.75;;;19.30;52.60;;;;;;5009773;28;20049;-84
2021/12/07 04:17:23;;;;;;;1.80;0.95;;;19.30;52.60;;;;;;5009655;28;20037;-84
2021/12/07 04:19:48;;;;;;;1.70;0.70;;;19.30;52.60;;;;;;5009618;28;20080;-84
2021/12/07 04:22:14;;;;;;;1.85;0.90;;;19.30;52.60;;;;;;5006235;28;20460;-84
2021/12/07 04:24:39;;;;;;;1.60;0.82;;;19.30;52.60;;;;;;5009323;28;20144;-84
2021/12/07 04:27:05;;;;;;;2.17;1.00;;;19.30;52.60;;;;;;5008596;28;20073;-84
2021/12/07 04:29:31;;;;;;;1.40;0.80;;;19.30;52.50;;;;;;5009146;28;20042;-85
2021/12/07 04:31:56;;;;;;;2.13;0.98;;;19.30;52.50;;;;;;5009520;28;20087;-84
2021/12/07 04:34:22;;;;;;;1.40;0.80;;;19.30;52.50;;;;;;5009367;28;20053;-84
2021/12/07 04:36:47;;;;;;;1.40;0.70;;;19.30;52.60;;;;;;5008886;28;20077;-83
2021/12/07 04:39:13;;;;;;;1.67;0.88;;;19.30;52.50;;;;;;5009055;28;20057;-84
2021/12/07 04:41:42;;;;;;;1.77;1.00;;;19.30;52.60;;;;;;4998868;28;20065;-83
2021/12/07 04:44:07;;;;;;;2.45;0.82;;;19.30;52.60;;;;;;5008636;28;20509;-84
2021/12/07 04:46:39;;;;;;;1.75;0.80;;;19.30;52.60;;;;;;5009424;28;20057;-84
2021/12/07 04:57:38;;;;;;;1.48;0.70;;;19.30;52.60;;;;;;5008635;28;20050;-85
2021/12/07 05:00:09;;;;;;;1.60;0.75;;;20.20;53.00;;;;;;5009172;28;20071;-86
2021/12/07 05:02:36;;;;;;;1.77;0.70;;;19.40;52.70;;;;;;5008849;28;20129;-83
2021/12/07 05:05:02;;;;;;;1.50;0.70;;;19.30;52.60;;;;;;5008305;28;20502;-84
2021/12/07 05:07:34;;;;;;;1.23;0.70;;;19.30;52.60;;;;;;5008925;28;20061;-84
2021/12/07 05:12:41;;;;;;;1.88;0.77;;;19.30;52.60;;;;;;5008482;28;20049;-84
2021/12/07 05:15:20;;;;;;;1.10;0.57;;;19.30;52.60;;;;;;5008752;28;20258;-84
2021/12/07 05:18:05;;;;;;;1.05;0.70;;;19.30;52.60;;;;;;5008070;28;20072;-84
2021/12/07 05:23:55;;;;;;;1.52;0.80;;;20.90;53.50;;;;;;5008272;28;20046;-84
2021/12/07 05:34:31;;;;;;;1.20;0.65;;;21.00;53.50;;;;;;5006019;28;20060;-85
2021/12/07 05:39:45;;;;;;;1.58;0.60;;;19.30;52.60;;;;;;5007947;28;20046;-83
2021/12/07 05:42:11;;;;;;;1.20;0.63;;;19.30;52.60;;;;;;5008261;28;20057;-84
2021/12/07 05:44:37;;;;;;;2.40;0.70;;;21.00;53.50;;;;;;5008463;28;20073;-84
2021/12/07 05:47:05;;;;;;;1.05;0.55;;;20.50;53.20;;;;;;5008297;28;20081;-84
2021/12/07 05:49:31;;;;;;;1.45;0.75;;;19.30;52.60;;;;;;5008626;28;20046;-84
2021/12/07 05:51:57;;;;;;;1.60;0.60;;;19.30;52.60;;;;;;4845356;28;5090339;-84
2021/12/07 05:54:22;;;;;;;1.70;0.80;;;19.30;52.60;;;;;;5012250;28;20441;-84
2021/12/07 05:56:48;;;;;;;1.15;0.60;;;20.60;53.20;;;;;;5003802;28;20796;-84
2021/12/07 05:59:14;;;;;;;1.00;0.50;;;20.80;53.40;;;;;;5021559;28;20050;-84
2021/12/07 06:01:40;;;;;;;1.58;0.70;;;19.30;52.60;;;;;;5007829;28;20054;-84
2021/12/07 06:04:05;;;;;;;1.73;0.75;;;19.30;52.60;;;;;;5007944;28;20514;-84
2021/12/07 06:06:31;;;;;;;0.82;0.40;;;20.70;53.30;;;;;;5007185;28;20058;-85
2021/12/07 06:08:56;;;;;;;1.45;0.60;;;19.30;52.60;;;;;;5007884;28;20056;-84
2021/12/07 06:11:24;;;;;;;1.60;0.70;;;19.30;52.60;;;;;;5008305;28;20056;-84
2021/12/07 06:13:50;;;;;;;1.02;0.50;;;19.30;52.60;;;;;;5007580;28;20053;-84
2021/12/07 06:16:16;;;;;;;1.23;0.50;;;19.30;52.50;;;;;;5007874;28;20037;-85
2021/12/07 06:18:42;;;;;;;1.27;0.70;;;19.30;52.60;;;;;;5007831;28;20061;-84
2021/12/07 06:21:07;;;;;;;1.02;0.50;;;19.30;52.60;;;;;;5007537;28;20050;-85
2021/12/07 06:23:33;;;;;;;1.63;0.50;;;19.30;52.60;;;;;;5008223;28;20064;-85
2021/12/07 06:25:59;;;;;;;1.50;0.60;;;19.30;52.60;;;;;;5007973;28;20409;-84
2021/12/07 06:28:24;;;;;;;1.45;0.52;;;19.30;52.60;;;;;;5007531;28;20091;-85
2021/12/07 06:30:50;;;;;;;1.20;0.50;;;19.30;52.60;;;;;;5002691;28;20046;-85
2021/12/07 06:33:17;;;;;;;1.20;0.50;;;19.30;52.60;;;;;;5016492;28;20124;-85
2021/12/07 06:35:43;;;;;;;0.90;0.40;;;19.30;52.60;;;;;;4989553;28;20053;-84
2021/12/07 06:38:09;;;;;;;0.43;0.30;;;19.40;52.60;;;;;;4969344;28;20472;-84
2021/12/07 06:40:34;;;;;;;1.23;0.45;;;19.30;52.60;;;;;;5031432;28;20096;-84
2021/12/07 06:43:00;;;;;;;1.10;0.57;;;19.40;52.70;;;;;;5011207;28;20042;-84
2021/12/07 06:45:26;;;;;;;0.95;0.40;;;19.40;52.70;;;;;;5011356;28;20737;-84
2021/12/07 06:47:52;;;;;;;0.85;0.45;;;19.40;52.60;;;;;;5006255;28;20497;-85
2021/12/07 06:50:17;;;;;;;1.48;0.40;;;19.30;52.60;;;;;;5011051;28;20057;-85
2021/12/07 06:52:43;;;;;;;1.05;0.50;;;19.40;52.70;;;;;;5011175;28;20054;-85
2021/12/07 06:55:09;;;;;;;1.17;0.50;;;19.30;52.60;;;;;;5011011;28;20068;-85
2021/12/07 06:57:34;;;;;;;0.85;0.50;;;19.30;52.60;;;;;;5011027;28;20160;-85
2021/12/07 07:00:00;;;;;;;0.80;0.40;;;19.30;52.60;;;;;;5011158;28;20405;-84
2021/12/07 07:02:26;;;;;;;0.70;0.45;;;19.40;52.70;;;;;;5011186;28;20053;-85
2021/12/07 07:04:51;;;;;;;1.00;0.50;;;20.50;53.40;;;;;;5008161;28;20121;-86
2021/12/07 07:07:18;;;;;;;0.80;0.40;;;19.40;52.80;;;;;;4991338;28;20050;-85
2021/12/07 07:09:50;;;;;;;1.08;0.57;;;18.80;52.50;;;;;;4990529;28;20403;-85
2021/12/07 07:12:31;;;;;;;1.10;0.40;;;18.00;52.30;;;;;;5000896;28;20046;-85
2021/12/07 07:14:57;;;;;;;0.80;0.55;;;17.10;51.70;;;;;;5009406;28;20057;-85
2021/12/07 07:17:22;;;;;;;0.90;0.40;;;20.70;53.60;;;;;;5010451;28;20038;-85
2021/12/07 07:19:48;;;;;;;0.50;0.28;;;20.70;53.40;;;;;;5011460;28;20544;-84
2021/12/07 07:22:13;;;;;;;1.15;0.50;;;19.40;52.80;;;;;;5010683;28;20045;-80
2021/12/07 07:24:42;;;;;;;1.13;0.50;;;19.40;52.70;;;;;;5012020;28;20046;-84
2021/12/07 07:27:08;;;;;;;1.77;0.50;;;21.20;53.60;;;;;;5010951;28;20054;-83
2021/12/07 07:29:34;;;;;;;0.57;0.40;;;19.40;52.60;;;;;;4993095;28;20502;-82
2021/12/07 07:31:59;;;;;;;1.38;0.50;;;19.40;52.60;;;;;;4990578;28;20053;-83
2021/12/07 07:34:25;;;;;;;3.70;0.50;;;19.60;52.70;;;;;;5001991;28;20137;-83
2021/12/07 07:36:51;;;;;;;0.82;0.40;;;19.50;52.60;;;;;;5001983;28;20042;-83
2021/12/07 07:39:16;;;;;;;0.80;0.30;;;19.40;52.60;;;;;;5001733;28;20043;-83
2021/12/07 07:41:42;;;;;;;0.88;0.43;;;19.40;52.60;;;;;;4991290;28;20042;-83
2021/12/07 07:44:07;;;;;;;1.02;0.40;;;19.40;52.60;;;;;;5025103;28;20049;-83
2021/12/07 07:46:33;;;;;;;1.00;0.50;;;19.40;52.60;;;;;;4994622;28;20120;-83
2021/12/07 07:49:00;;;;;;;0.80;0.40;;;19.40;52.50;;;;;;5002062;28;20045;-82
2021/12/07 07:51:26;;;;;;;1.02;0.55;;;19.40;52.60;;;;;;4990211;28;20054;-81
2021/12/07 07:53:51;;;;;;;0.57;0.40;;;19.50;52.60;;;;;;5004499;28;20509;-82
2021/12/07 07:56:17;;;;;;;1.13;0.30;;;19.40;52.50;;;;;;4985567;28;20132;-84
2021/12/07 07:58:43;;;;;;;1.33;0.45;;;20.40;53.20;;;;;;5004020;28;20042;-83
2021/12/07 08:01:09;;;;;;;0.82;0.40;;;21.10;53.50;;;;;;4999465;28;20573;-83
2021/12/07 08:03:35;;;;;;;0.85;0.30;;;19.40;52.50;;;;;;4998850;28;20061;-83
2021/12/07 08:06:01;;;;;;;2.15;0.55;;;19.40;52.50;;;;;;5006172;28;20050;-81
2021/12/07 08:08:26;;;;;;;1.52;0.55;;;19.40;52.50;;;;;;4999586;28;20065;-82
2021/12/07 08:10:52;;;;;;;0.80;0.40;;;19.40;52.50;;;;;;5001500;28;20409;-83
2021/12/07 08:13:19;;;;;;;0.82;0.40;;;19.40;52.50;;;;;;4991012;28;20523;-83
2021/12/07 08:15:46;;;;;;;0.90;0.50;;;19.40;52.50;;;;;;4992599;28;20602;-83
2021/12/07 08:18:15;;;;;;;1.58;0.40;;;19.40;53.10;;;;;;5007861;28;20053;-83
2021/12/07 08:20:41;;;;;;;1.10;0.40;;;19.30;52.70;;;;;;5008870;28;20053;-82
2021/12/07 08:23:06;;;;;;;1.90;0.45;;;19.40;52.50;;;;;;5007081;28;20057;-82
2021/12/07 08:25:38;;;;;;;1.50;0.50;;;19.40;52.50;;;;;;5009404;28;20042;-81
2021/12/07 08:28:07;;;;;;;1.75;0.47;;;19.90;52.80;;;;;;5009368;28;20061;-83
2021/12/07 08:30:33;;;;;;;1.27;0.40;;;19.60;52.60;;;;;;5009128;28;20056;-83
2021/12/07 08:32:59;;;;;;;1.10;0.50;;;19.40;52.50;;;;;;4996792;28;20054;-82
2021/12/07 08:35:24;;;;;;;1.10;0.40;;;19.30;52.40;;;;;;5008772;28;20053;-83
2021/12/07 08:37:50;;;;;;;1.00;0.50;;;19.40;52.50;;;;;;5005584;28;20149;-84
2021/12/07 08:40:18;;;;;;;1.00;0.40;;;19.40;52.40;;;;;;5009342;28;20045;-83
2021/12/07 08:42:44;;;;;;;1.27;0.40;;;19.50;52.50;;;;;;4993204;28;20068;-83
2021/12/07 08:45:10;;;;;;;1.00;0.50;;;19.40;52.40;;;;;;5009382;28;20050;-84
2021/12/07 08:47:35;;;;;;;0.73;0.40;;;19.50;52.40;;;;;;4994839;28;20537;-83
2021/12/07 08:50:01;;;;;;;1.02;0.43;;;19.30;52.40;;;;;;4989107;28;20456;-84
2021/12/07 08:52:27;;;;;;;0.77;0.40;;;19.40;52.30;;;;;;4989827;28;20046;-82
2021/12/07 09:00:04;;;;;;;2.13;0.70;;;19.40;52.30;;;;;;5010480;28;20049;-80
2021/12/07 09:02:29;;;;;;;4.10;0.90;;;19.40;52.30;;;;;;5007610;28;20084;-83
2021/12/07 09:04:55;;;;;;;2.00;0.80;;;19.30;51.90;;;;;;5008627;28;20050;-82
2021/12/07 09:07:21;;;;;;;2.03;0.70;;;19.30;51.70;;;;;;4991614;28;20077;-83
2021/12/07 09:09:47;;;;;;;4.05;0.88;;;19.30;51.80;;;;;;4991359;28;20468;-82
2021/12/07 09:12:13;;;;;;;2.70;0.77;;;19.30;51.90;;;;;;5005656;28;20077;-82
2021/12/07 09:14:41;;;;;;;1.58;0.40;;;20.00;52.30;;;;;;5009769;28;20551;-82
2021/12/07 09:17:07;;;;;;;1.98;0.45;;;19.40;52.10;;;;;;5008692;28;20060;-83
2021/12/07 09:19:32;;;;;;;1.67;0.60;;;19.30;52.00;;;;;;5008248;28;20046;-83
2021/12/07 09:21:58;;;;;;;2.00;0.60;;;19.40;52.10;;;;;;5006302;28;20050;-83
2021/12/07 09:24:23;;;;;;;1.42;0.60;;;19.40;52.10;;;;;;5008269;28;20052;-82
2021/12/07 09:26:49;;;;;;;2.15;0.50;;;19.40;52.10;;;;;;5008256;28;20180;-82
2021/12/07 09:29:15;;;;;;;3.22;0.68;;;19.30;52.10;;;;;;5003291;28;20050;-82
2021/12/07 09:31:40;;;;;;;1.70;0.60;;;19.40;52.10;;;;;;5008338;28;20054;-83
2021/12/07 09:34:06;;;;;;;2.03;0.50;;;19.40;52.10;;;;;;5001476;28;20073;-82
2021/12/07 09:36:32;;;;;;;1.23;0.40;;;19.40;52.10;;;;;;4988867;28;20096;-82
2021/12/07 09:38:58;;;;;;;1.00;0.40;;;19.40;52.10;;;;;;5000798;28;20187;-81
2021/12/07 09:41:24;;;;;;;0.93;0.43;;;19.40;52.40;;;;;;4991690;28;20057;-82
2021/12/07 09:43:49;;;;;;;2.35;0.50;;;19.40;52.80;;;;;;4988637;28;20056;-82
2021/12/07 09:46:15;;;;;;;9.65;1.08;;;19.40;52.10;;;;;;4976232;28;20145;-82
2021/12/07 09:48:42;;;;;;;2.33;0.80;;;19.40;52.10;;;;;;4999215;28;20076;-81
2021/12/07 09:51:08;;;;;;;1.92;0.80;;;19.40;51.90;;;;;;4983035;28;20046;-81
2021/12/07 09:53:34;;;;;;;4.65;0.70;;;19.40;51.90;;;;;;4997420;28;20058;-83
2021/12/07 09:56:00;;;;;;;9.32;0.90;;;19.40;51.90;;;;;;5004817;28;20053;-80
2021/12/07 09:58:26;;;;;;;2.28;0.60;;;19.40;51.80;;;;;;5006895;28;20053;-79
2021/12/07 10:00:52;;;;;;;4.35;0.70;;;19.40;51.80;;;;;;5007214;28;20045;-80
2021/12/07 10:03:18;;;;;;;3.13;0.70;;;19.40;51.80;;;;;;5007829;28;20112;-80
2021/12/07 10:05:44;;;;;;;2.92;0.60;;;19.40;51.70;;;;;;5007586;28;20050;-80
2021/12/07 10:08:10;;;;;;;3.75;0.68;;;19.40;51.80;;;;;;5008172;28;20072;-81
2021/12/07 10:10:37;;;;;;;3.17;0.68;;;19.40;51.80;;;;;;4999749;28;20046;-81
2021/12/07 10:13:03;;;;;;;2.28;0.57;;;19.40;51.80;;;;;;5006873;28;20052;-82
2021/12/07 10:15:29;;;;;;;5.60;0.70;;;19.50;51.80;;;;;;5005054;28;20239;-82
2021/12/07 10:18:09;;;;;;;3.42;0.80;;;19.50;51.80;;;;;;5001634;28;20474;-80
2021/12/07 10:20:48;;;;;;;2.70;0.82;;;19.50;51.70;;;;;;5002985;28;20053;-80
2021/12/07 10:23:13;;;;;;;3.90;0.75;;;19.50;51.70;;;;;;5007079;28;20049;-81
2021/12/07 10:25:40;;;;;;;2.55;0.60;;;19.50;51.70;;;;;;5004830;28;20375;-81
2021/12/07 10:28:24;;;;;;;2.67;0.63;;;19.50;51.60;;;;;;5001609;28;20486;-81
2021/12/07 10:30:50;;;;;;;6.05;0.70;;;19.50;51.60;;;;;;4994016;28;20055;-79
2021/12/07 10:33:21;;;;;;;5.13;1.00;;;19.60;51.60;;;;;;4988359;28;20060;-80
2021/12/07 10:35:47;;;;;;;4.13;0.60;;;19.50;51.50;;;;;;4965807;28;20627;-83
2021/12/07 10:38:14;;;;;;;4.60;0.88;;;19.60;51.50;;;;;;4997211;28;20046;-80
2021/12/07 10:41:03;;;;;;;3.22;0.90;;;19.50;51.40;;;;;;4998914;28;20042;-82
2021/12/07 10:43:41;;;;;;;5.28;1.05;;;19.60;51.40;;;;;;5010251;28;20081;-77
2021/12/07 10:46:27;;;;;;;5.18;0.80;;;19.60;51.20;;;;;;5009148;28;20061;-77
2021/12/07 10:49:16;;;;;;;4.25;0.70;;;19.60;51.30;;;;;;5010391;28;20405;-77
2021/12/07 10:51:53;;;;;;;3.38;0.90;;;19.60;51.40;;;;;;4980249;28;20058;-79
2021/12/07 10:54:20;;;;;;;6.30;0.80;;;19.60;51.50;;;;;;5002296;28;20437;-78
2021/12/07 10:56:47;;;;;;;3.13;0.80;;;19.70;51.50;;;;;;5001296;28;20509;-81
2021/12/07 10:59:13;;;;;;;4.13;0.85;;;19.70;51.50;;;;;;5002252;28;20060;-81
2021/12/07 11:01:41;;;;;;;2.72;0.65;;;19.70;51.50;;;;;;5006788;28;20045;-83
2021/12/07 11:04:27;;;;;;;5.18;0.60;;;19.80;51.60;;;;;;5010152;28;20589;-77
2021/12/07 11:07:10;;;;;;;4.72;0.70;;;19.80;51.30;;;;;;5009010;28;20104;-76
2021/12/07 11:09:39;;;;;;;5.70;0.70;;;19.80;51.20;;;;;;5007361;28;20049;-77
2021/12/07 11:12:16;;;;;;;5.10;0.77;;;19.80;51.10;;;;;;5002072;28;20054;-78
2021/12/07 11:14:53;;;;;;;1.80;0.47;;;19.90;51.20;;;;;;4991528;28;20069;-77
2021/12/07 11:17:30;;;;;;;2.30;0.60;;;19.90;51.30;;;;;;4991374;28;20054;-79
2021/12/07 11:19:55;;;;;;;2.17;0.45;;;20.60;51.70;;;;;;4993639;28;20092;-78
2021/12/07 11:22:23;;;;;;;1.92;0.40;;;19.90;51.30;;;;;;4997789;28;20461;-78
2021/12/07 11:24:51;;;;;;;3.83;0.70;;;20.00;51.40;;;;;;5002748;28;20119;-78
2021/12/07 11:30:09;;;;;;;1.27;0.40;;;20.00;51.40;;;;;;5011625;28;20050;-79
2021/12/07 11:32:36;;;;;;;1.85;0.45;;;20.00;51.30;;;;;;5010331;28;20176;-79
2021/12/07 11:35:15;;;;;;;2.25;0.60;;;20.00;51.30;;;;;;5003771;28;20050;-79
2021/12/07 11:37:41;;;;;;;1.23;0.30;;;20.00;51.30;;;;;;4997297;28;20042;-79
2021/12/07 11:40:07;;;;;;;1.35;0.40;;;20.00;51.30;;;;;;5010497;28;20104;-78
2021/12/07 11:42:37;;;;;;;2.65;0.63;;;20.00;51.30;;;;;;4987294;28;20082;-78
2021/12/07 11:45:29;;;;;;;1.52;0.35;;;20.00;51.30;;;;;;4971439;28;20101;-79
2021/12/07 11:47:57;;;;;;;2.17;0.50;;;20.00;51.30;;;;;;4971106;28;20043;-78
2021/12/07 11:50:27;;;;;;;1.27;0.57;;;20.00;51.30;;;;;;4971360;28;20050;-79
2021/12/07 11:53:13;;;;;;;2.15;0.60;;;20.00;51.30;;;;;;5003352;28;20051;-79
2021/12/07 11:55:40;;;;;;;2.47;0.30;;;20.00;51.30;;;;;;4970467;28;20077;-79
2021/12/07 11:58:06;;;;;;;2.13;0.50;;;20.00;51.30;;;;;;4971633;28;20138;-81
2021/12/07 12:00:38;;;;;;;3.20;0.60;;;20.80;51.70;;;;;;5002822;28;20081;-81
2021/12/07 12:03:05;;;;;;;2.60;0.47;;;20.00;52.00;;;;;;4949206;28;20091;-78
2021/12/07 12:05:31;;;;;;;2.30;0.60;;;20.00;51.30;;;;;;4962327;28;20146;-79
2021/12/07 12:07:57;;;;;;;2.65;0.40;;;21.50;52.20;;;;;;4947363;29;20543;-80
2021/12/07 12:10:22;;;;;;;2.67;0.57;;;20.00;51.40;;;;;;4931429;29;20079;-80
2021/12/07 12:13:10;;;;;;;2.50;0.75;;;20.00;51.30;;;;;;4947006;29;20487;-80
2021/12/07 12:16:20;;;;;;;2.00;0.50;;;20.70;51.70;;;;;;4948113;29;20055;-81
2021/12/07 12:19:23;;;;;;;1.63;0.30;;;20.20;51.50;;;;;;5002102;28;20105;-80
2021/12/07 12:21:53;;;;;;;1.80;0.30;;;20.10;51.30;;;;;;4970161;28;20494;-79
2021/12/07 12:24:30;;;;;;;1.42;0.38;;;20.00;51.30;;;;;;4975976;28;20093;-79
2021/12/07 12:27:14;;;;;;;2.25;0.40;;;20.10;51.30;;;;;;4953608;28;20055;-80
2021/12/07 12:29:40;;;;;;;1.95;0.40;;;21.10;51.90;;;;;;4973769;28;20054;-78
2021/12/07 12:32:06;;;;;;;2.53;0.40;;;20.10;51.30;;;;;;4968153;28;20499;-79
2021/12/07 12:34:36;;;;;;;2.58;0.38;;;20.10;51.30;;;;;;4981021;28;20141;-80
2021/12/07 12:37:31;;;;;;;1.40;0.47;;;20.10;51.30;;;;;;4975714;28;20331;-80
2021/12/07 12:40:04;;;;;;;2.78;0.40;;;20.10;51.30;;;;;;4970347;28;20061;-79
2021/12/07 12:42:40;;;;;;;2.50;0.57;;;20.10;51.30;;;;;;4969850;28;20062;-79
2021/12/07 12:45:07;;;;;;;2.30;0.38;;;20.10;51.30;;;;;;4970181;28;20085;-79
2021/12/07 12:47:33;;;;;;;1.23;0.30;;;20.10;51.30;;;;;;4969648;28;20047;-79
2021/12/07 12:50:10;;;;;;;2.78;0.40;;;20.10;51.50;;;;;;4971381;28;20051;-79
2021/12/07 12:52:58;;;;;;;1.38;0.30;;;20.10;51.30;;;;;;4972268;28;20125;-79
2021/12/07 12:55:28;;;;;;;0.80;0.40;;;20.10;51.30;;;;;;4977466;28;20058;-79
2021/12/07 12:57:54;;;;;;;1.70;0.30;;;20.10;51.30;;;;;;4978101;28;20549;-79
2021/12/07 13:00:20;;;;;;;0.95;0.40;;;20.10;51.30;;;;;;4976022;28;20089;-79
2021/12/07 13:02:53;;;;;;;1.80;0.40;;;20.10;51.30;;;;;;4969270;28;20046;-79
2021/12/07 13:05:34;;;;;;;2.92;0.47;;;20.10;51.30;;;;;;4969720;28;20070;-79
2021/12/07 13:08:15;;;;;;;1.95;0.40;;;20.10;51.30;;;;;;4955050;28;20411;-79
2021/12/07 13:11:10;;;;;;;3.08;0.40;;;20.10;51.20;;;;;;5001656;28;20435;-79
2021/12/07 13:13:36;;;;;;;1.85;0.40;;;20.80;51.60;;;;;;4973519;28;20407;-79
2021/12/07 13:16:17;;;;;;;1.75;0.40;;;20.10;51.30;;;;;;4968807;28;20043;-79
2021/12/07 13:18:43;;;;;;;2.42;0.47;;;20.10;51.30;;;;;;4969819;28;20482;-79
2021/12/07 13:21:38;;;;;;;3.38;0.50;;;20.10;51.20;;;;;;4969528;28;20180;-79
2021/12/07 13:24:15;;;;;;;1.63;0.40;;;20.10;51.30;;;;;;4952990;28;20077;-79
2021/12/07 13:26:42;;;;;;;1.63;0.40;;;20.10;51.30;;;;;;4989024;28;20064;-79
2021/12/07 13:29:12;;;;;;;1.58;0.35;;;20.10;51.20;;;;;;4988981;28;20129;-79
2021/12/07 13:31:43;;;;;;;1.88;0.30;;;20.10;51.30;;;;;;4987017;28;20046;-79
2021/12/07 13:34:08;;;;;;;1.77;0.38;;;20.10;51.30;;;;;;4988128;28;20667;-78
2021/12/07 13:36:47;;;;;;;2.40;0.50;;;20.10;51.20;;;;;;4983085;28;20053;-77
2021/12/07 13:39:12;;;;;;;3.42;0.68;;;20.10;51.10;;;;;;5010668;28;20070;-77
2021/12/07 13:41:48;;;;;;;1.55;0.40;;;20.10;51.00;;;;;;4970102;28;20047;-76
2021/12/07 13:44:14;;;;;;;3.65;0.40;;;20.00;51.20;;;;;;4968464;28;20177;-76
2021/12/07 13:46:40;;;;;;;1.40;0.40;;;20.10;51.00;;;;;;4968685;28;20126;-76
2021/12/07 13:49:11;;;;;;;0.82;0.30;;;20.10;51.30;;;;;;4984603;28;20054;-76
2021/12/07 13:51:37;;;;;;;1.00;0.40;;;20.10;51.30;;;;;;4968521;28;20391;-76
2021/12/07 13:54:04;;;;;;;1.65;0.40;;;20.10;51.30;;;;;;4969372;28;20050;-75
2021/12/07 13:56:37;;;;;;;1.92;0.35;;;20.10;51.30;;;;;;4984756;28;20047;-77
2021/12/07 13:59:10;;;;;;;6.55;1.63;;;20.20;51.40;;;;;;4968228;28;20577;-76
2021/12/07 14:01:38;;;;;;;71.85;25.48;;;20.10;51.40;;;;;;4977681;28;20055;-81
2021/12/07 14:04:04;;;;;;;67.80;23.63;;;20.20;51.50;;;;;;5008703;28;20050;-80
2021/12/07 14:06:29;;;;;;;53.15;16.75;;;20.10;51.30;;;;;;4975723;28;20108;-78
2021/12/07 14:09:09;;;;;;;39.25;14.75;;;20.20;51.50;;;;;;4979713;28;20050;-79
2021/12/07 14:11:35;;;;;;;37.33;13.93;;;20.20;51.50;;;;;;4977584;28;20130;-81
2021/12/07 14:14:00;;;;;;;37.75;12.95;;;21.00;52.00;;;;;;4974187;28;20054;-83
2021/12/07 14:16:26;;;;;;;41.78;13.50;;;20.50;51.60;;;;;;4983153;28;20056;-81
2021/12/07 14:18:52;;;;;;;35.38;13.10;;;20.20;51.50;;;;;;5006992;28;20057;-82
2021/12/07 14:21:18;;;;;;;31.35;12.52;;;20.20;51.50;;;;;;5007376;28;20046;-82